Time;durP1;ratioP1;P1;durP2;ratioP2;P2;SDS_P1;SDS_P2;PMS_P1;PMS_P2;Temp;Humidity;BMP_temperature;BMP_pressure;BME280_temperature;BME280_humidity;BME280_pressure;Samples;Min_cycle;Max_cycle;Signal;HPM_P1;HPM_P2
2021/06/02 00:00:06;;;;;;;2.85;1.38;;;;;;;;;;5021631;28;20025;-80
2021/06/02 00:02:32;;;;;;;1.48;1.10;;;;;;;;;;5023230;28;20026;-80
2021/06/02 00:05:01;;;;;;;1.50;1.40;;;;;;;;;;5023180;28;20049;-81
2021/06/02 00:07:28;;;;;;;1.40;1.15;;;;;;;;;;5021185;28;20033;-81
2021/06/02 00:09:56;;;;;;;0.93;0.93;;;;;;;;;;5021402;28;20021;-80
2021/06/02 00:12:22;;;;;;;1.27;0.95;;;;;;;;;;5027715;28;20029;-81
2021/06/02 00:14:48;;;;;;;1.00;0.82;;;;;;;;;;5036576;28;20100;-79
2021/06/02 00:17:17;;;;;;;1.05;0.98;;;;;;;;;;5040639;28;20431;-80
2021/06/02 00:19:43;;;;;;;1.42;1.08;;;;;;;;;;5039300;28;20052;-80
2021/06/02 00:22:09;;;;;;;0.80;0.80;;;;;;;;;;5027353;28;20084;-80
2021/06/02 00:24:35;;;;;;;1.98;0.95;;;;;;;;;;5019530;28;20537;-80
2021/06/02 00:27:04;;;;;;;0.70;0.70;;;;;;;;;;5018859;28;20053;-79
2021/06/02 00:29:32;;;;;;;1.30;0.93;;;;;;;;;;5017670;28;20394;-79
2021/06/02 00:31:58;;;;;;;1.00;0.90;;;;;;;;;;5022209;28;20085;-78
2021/06/02 00:34:27;;;;;;;0.93;0.93;;;;;;;;;;5046635;28;20106;-80
2021/06/02 00:36:53;;;;;;;2.10;1.25;;;;;;;;;;5036016;28;20070;-80
2021/06/02 00:39:19;;;;;;;1.10;1.00;;;;;;;;;;5036489;28;20026;-79
2021/06/02 00:41:47;;;;;;;1.45;1.17;;;;;;;;;;5025395;28;20030;-77
2021/06/02 00:44:18;;;;;;;0.93;0.90;;;;;;;;;;5031140;28;20065;-77
2021/06/02 00:46:46;;;;;;;2.40;1.02;;;;;;;;;;5028862;28;20034;-80
2021/06/02 00:49:13;;;;;;;1.38;1.10;;;;;;;;;;5020558;28;20018;-79
2021/06/02 00:51:39;;;;;;;1.70;1.27;;;;;;;;;;5019713;28;20430;-79
2021/06/02 00:54:06;;;;;;;1.17;1.13;;;;;;;;;;5019906;28;20112;-77
2021/06/02 00:56:42;;;;;;;1.25;1.15;;;;;;;;;;5020522;28;20029;-80
2021/06/02 00:59:09;;;;;;;2.10;1.13;;;;;;;;;;5021717;28;20050;-79
2021/06/02 01:01:36;;;;;;;1.15;1.13;;;;;;;;;;5025902;28;20042;-80
2021/06/02 01:04:04;;;;;;;2.10;1.40;;;;;;;;;;5026802;28;20073;-80
2021/06/02 01:06:33;;;;;;;1.50;1.17;;;;;;;;;;5020352;28;20056;-80
2021/06/02 01:09:00;;;;;;;1.20;1.08;;;;;;;;;;5017184;28;20034;-80
2021/06/02 01:11:29;;;;;;;2.30;1.42;;;;;;;;;;5038040;28;20450;-79
2021/06/02 01:14:00;;;;;;;1.35;1.25;;;;;;;;;;5018523;28;20030;-80
2021/06/02 01:16:28;;;;;;;1.00;1.00;;;;;;;;;;5015085;28;20385;-80
2021/06/02 01:18:54;;;;;;;1.25;1.05;;;;;;;;;;5015273;28;20486;-79
2021/06/02 01:21:22;;;;;;;1.40;1.27;;;;;;;;;;5016263;28;20026;-78
2021/06/02 01:23:50;;;;;;;2.20;1.17;;;;;;;;;;5015997;28;20113;-78
2021/06/02 01:26:17;;;;;;;1.25;1.15;;;;;;;;;;5017223;28;20049;-79
2021/06/02 01:28:44;;;;;;;1.23;1.13;;;;;;;;;;5017236;28;20075;-79
2021/06/02 01:31:10;;;;;;;2.45;1.27;;;;;;;;;;5016809;28;20052;-79
2021/06/02 01:33:39;;;;;;;1.65;1.35;;;;;;;;;;5031722;28;20030;-79
2021/06/02 01:36:05;;;;;;;1.20;1.10;;;;;;;;;;5016885;28;20037;-79
2021/06/02 01:38:31;;;;;;;2.17;1.20;;;;;;;;;;5016699;28;20100;-80
2021/06/02 01:41:00;;;;;;;1.42;0.95;;;;;;;;;;5017133;28;20026;-80
2021/06/02 01:43:45;;;;;;;1.23;1.13;;;;;;;;;;5024603;28;20038;-79
2021/06/02 01:46:29;;;;;;;3.10;1.70;;;;;;;;;;5017047;28;20022;-79
2021/06/02 01:49:07;;;;;;;2.33;1.80;;;;;;;;;;5027359;28;20042;-78
2021/06/02 01:51:52;;;;;;;2.45;1.48;;;;;;;;;;5016682;28;20510;-81
2021/06/02 01:54:21;;;;;;;1.63;1.42;;;;;;;;;;5026558;28;20042;-78
2021/06/02 01:56:59;;;;;;;1.17;1.08;;;;;;;;;;5026674;28;20066;-78
2021/06/02 01:59:25;;;;;;;1.88;1.05;;;;;;;;;;5020050;28;20038;-78
2021/06/02 02:02:01;;;;;;;2.45;1.08;;;;;;;;;;5017175;28;20053;-79
2021/06/02 02:04:33;;;;;;;1.80;1.25;;;;;;;;;;5016778;28;20022;-80
2021/06/02 02:06:59;;;;;;;1.10;1.02;;;;;;;;;;5031650;28;20097;-79
2021/06/02 02:09:28;;;;;;;1.42;0.90;;;;;;;;;;5017301;28;20084;-80
2021/06/02 02:12:14;;;;;;;1.10;1.00;;;;;;;;;;5027778;28;20594;-80
2021/06/02 02:14:59;;;;;;;0.93;0.90;;;;;;;;;;5018091;28;20037;-79
2021/06/02 02:17:44;;;;;;;1.35;1.10;;;;;;;;;;5016244;28;20034;-79
2021/06/02 02:20:29;;;;;;;1.25;1.13;;;;;;;;;;5018928;28;20081;-80
2021/06/02 02:23:14;;;;;;;1.65;1.15;;;;;;;;;;5016568;28;20045;-80
2021/06/02 02:25:58;;;;;;;1.10;1.00;;;;;;;;;;5017080;28;20051;-79
2021/06/02 02:28:24;;;;;;;1.58;1.48;;;;;;;;;;5019758;28;20026;-79
2021/06/02 02:31:23;;;;;;;1.00;0.88;;;;;;;;;;5020268;28;20030;-79
2021/06/02 02:33:53;;;;;;;1.20;1.10;;;;;;;;;;5017852;28;20134;-78
2021/06/02 02:36:34;;;;;;;1.48;1.30;;;;;;;;;;5019800;28;20025;-79
2021/06/02 02:39:04;;;;;;;2.08;1.38;;;;;;;;;;5018186;28;20486;-78
2021/06/02 02:41:50;;;;;;;1.40;1.30;;;;;;;;;;5021990;28;20070;-77
2021/06/02 02:44:32;;;;;;;2.10;1.60;;;;;;;;;;5030748;28;20036;-78
2021/06/02 02:47:04;;;;;;;1.37;1.27;;;;;;;;;;5039544;28;20033;-77
2021/06/02 02:49:49;;;;;;;2.25;1.60;;;;;;;;;;5040582;28;20166;-78
2021/06/02 02:52:15;;;;;;;1.33;1.25;;;;;;;;;;5017709;28;20042;-79
2021/06/02 02:54:51;;;;;;;1.33;1.23;;;;;;;;;;5019480;28;20026;-78
2021/06/02 02:57:23;;;;;;;1.40;1.30;;;;;;;;;;5022662;28;20032;-76
2021/06/02 03:00:07;;;;;;;1.85;1.40;;;;;;;;;;5023878;28;20022;-79
2021/06/02 03:02:46;;;;;;;2.58;1.33;;;;;;;;;;5019128;28;20022;-78
2021/06/02 03:05:14;;;;;;;1.20;1.10;;;;;;;;;;5020991;28;20026;-77
2021/06/02 03:07:44;;;;;;;1.77;1.15;;;;;;;;;;5020715;28;20049;-78
2021/06/02 03:10:13;;;;;;;1.95;1.35;;;;;;;;;;5017722;28;20045;-80
2021/06/02 03:12:49;;;;;;;2.22;1.67;;;;;;;;;;5017109;28;20050;-78
2021/06/02 03:15:18;;;;;;;1.98;1.40;;;;;;;;;;5037219;28;20454;-78
2021/06/02 03:17:46;;;;;;;1.80;1.25;;;;;;;;;;5038694;28;20399;-79
2021/06/02 03:20:15;;;;;;;2.13;1.48;;;;;;;;;;5026022;28;20037;-80
2021/06/02 03:22:47;;;;;;;1.40;1.30;;;;;;;;;;5034135;28;20482;-79
2021/06/02 03:25:22;;;;;;;0.95;0.90;;;;;;;;;;5018812;28;20034;-79
2021/06/02 03:27:48;;;;;;;1.08;0.98;;;;;;;;;;5023764;28;20034;-78
2021/06/02 03:30:26;;;;;;;1.52;1.33;;;;;;;;;;5021075;28;20030;-79
2021/06/02 03:32:52;;;;;;;1.30;1.20;;;;;;;;;;5017331;28;20030;-79
2021/06/02 03:35:26;;;;;;;1.45;1.35;;;;;;;;;;5017355;28;20032;-79
2021/06/02 03:38:11;;;;;;;1.60;1.33;;;;;;;;;;5017849;28;20474;-80
2021/06/02 03:41:04;;;;;;;3.05;1.33;;;;;;;;;;5016519;28;20032;-78
2021/06/02 03:43:56;;;;;;;1.20;1.08;;;;;;;;;;5008491;28;20045;-79
2021/06/02 03:46:22;;;;;;;1.48;1.27;;;;;;;;;;5036671;28;20038;-80
2021/06/02 03:48:54;;;;;;;2.25;1.73;;;;;;;;;;5038781;28;20025;-80
2021/06/02 03:51:20;;;;;;;;;;;;;;;;;;5027735;28;20431;-79
2021/06/02 03:53:46;;;;;;;2.88;1.52;;;;;;;;;;5018762;28;20012;-80
2021/06/02 03:56:18;;;;;;;3.45;1.65;;;;;;;;;;5018688;28;20082;-80
2021/06/02 03:58:47;;;;;;;3.42;1.70;;;;;;;;;;5017823;28;20037;-79
2021/06/02 04:01:20;;;;;;;2.38;1.33;;;;;;;;;;5021848;28;20614;-78
2021/06/02 04:04:06;;;;;;;1.90;1.75;;;;;;;;;;5027816;28;20047;-79
2021/06/02 04:07:05;;;;;;;1.80;1.70;;;;;;;;;;5018381;28;20494;-78
2021/06/02 04:09:40;;;;;;;3.33;1.83;;;;;;;;;;5019989;28;20042;-78
2021/06/02 04:12:12;;;;;;;2.45;1.73;;;;;;;;;;5040017;28;20495;-78
2021/06/02 04:14:39;;;;;;;1.88;1.33;;;;;;;;;;5032788;28;20093;-78
2021/06/02 04:17:06;;;;;;;3.17;1.73;;;;;;;;;;5033940;28;20030;-79
2021/06/02 04:19:35;;;;;;;3.05;1.77;;;;;;;;;;5032863;28;20018;-78
2021/06/02 04:22:05;;;;;;;3.40;1.88;;;;;;;;;;5030137;28;20033;-79
2021/06/02 04:24:32;;;;;;;2.70;2.15;;;;;;;;;;5019008;28;20394;-78
2021/06/02 04:26:59;;;;;;;2.10;1.63;;;;;;;;;;5022071;28;20470;-77
2021/06/02 04:29:26;;;;;;;2.17;1.52;;;;;;;;;;5019785;28;20487;-77
2021/06/02 04:31:52;;;;;;;2.13;1.75;;;;;;;;;;5019791;28;20409;-78
2021/06/02 04:34:19;;;;;;;2.97;1.52;;;;;;;;;;5025123;28;20183;-78
2021/06/02 04:36:46;;;;;;;1.92;1.73;;;;;;;;;;5027326;28;20025;-78
2021/06/02 04:39:12;;;;;;;2.80;2.13;;;;;;;;;;5041885;28;20080;-80
2021/06/02 04:41:40;;;;;;;2.70;2.00;;;;;;;;;;5029297;28;20021;-79
2021/06/02 04:44:06;;;;;;;2.00;1.65;;;;;;;;;;5022139;28;20018;-78
2021/06/02 04:46:33;;;;;;;1.80;1.70;;;;;;;;;;5018259;28;20137;-78
2021/06/02 04:48:59;;;;;;;2.42;1.90;;;;;;;;;;5016708;28;20230;-78
2021/06/02 04:52:02;;;;;;;1.60;1.50;;;;;;;;;;5017869;28;20414;-77
2021/06/02 04:54:43;;;;;;;3.28;1.90;;;;;;;;;;5021071;28;20022;-78
2021/06/02 04:57:16;;;;;;;2.53;2.10;;;;;;;;;;5027228;28;20036;-78
2021/06/02 05:00:03;;;;;;;1.63;1.52;;;;;;;;;;5026590;28;20091;-78
2021/06/02 05:02:47;;;;;;;2.17;1.73;;;;;;;;;;5022818;28;20028;-79
2021/06/02 05:05:26;;;;;;;2.53;1.98;;;;;;;;;;5038330;28;20025;-79
2021/06/02 05:07:58;;;;;;;2.30;1.70;;;;;;;;;;5034360;28;20038;-79
2021/06/02 05:10:43;;;;;;;1.60;1.50;;;;;;;;;;5032879;28;20033;-80
2021/06/02 05:13:18;;;;;;;3.75;1.73;;;;;;;;;;5040151;28;20037;-80
2021/06/02 05:16:02;;;;;;;4.20;1.50;;;;;;;;;;5016600;28;20026;-80
2021/06/02 05:18:49;;;;;;;2.08;1.50;;;;;;;;;;5016769;28;20049;-81
2021/06/02 05:24:18;;;;;;;2.22;1.70;;;;;;;;;;5017152;28;20349;-80
2021/06/02 05:27:02;;;;;;;4.63;1.80;;;;;;;;;;5017451;28;20069;-80
2021/06/02 05:29:35;;;;;;;1.90;1.80;;;;;;;;;;5031813;28;20121;-79
2021/06/02 05:32:10;;;;;;;2.53;1.80;;;;;;;;;;5017279;28;20032;-80
2021/06/02 05:34:55;;;;;;;2.60;1.63;;;;;;;;;;5018190;28;20101;-80
2021/06/02 05:37:40;;;;;;;2.67;1.80;;;;;;;;;;5016158;28;20044;-80
2021/06/02 05:40:25;;;;;;;1.63;1.52;;;;;;;;;;5017192;28;20029;-81
2021/06/02 05:42:51;;;;;;;2.10;1.70;;;;;;;;;;5032570;28;20029;-81
2021/06/02 05:45:32;;;;;;;2.17;1.88;;;;;;;;;;5016888;28;20090;-81
2021/06/02 05:48:17;;;;;;;2.13;1.92;;;;;;;;;;5018285;28;20050;-81
2021/06/02 05:50:43;;;;;;;1.42;1.30;;;;;;;;;;5017969;28;20018;-81
2021/06/02 05:53:18;;;;;;;1.70;1.60;;;;;;;;;;5033042;28;20022;-81
2021/06/02 05:55:50;;;;;;;2.05;1.63;;;;;;;;;;5018331;28;20026;-81
2021/06/02 05:58:16;;;;;;;4.30;1.92;;;;;;;;;;5017241;28;20561;-81
2021/06/02 06:01:01;;;;;;;1.50;1.40;;;;;;;;;;5038723;28;20040;-79
2021/06/02 06:03:33;;;;;;;1.75;1.65;;;;;;;;;;5005177;28;20026;-80
2021/06/02 06:06:02;;;;;;;2.22;1.80;;;;;;;;;;5030169;28;20032;-80
2021/06/02 06:08:35;;;;;;;1.58;1.40;;;;;;;;;;5012721;28;20042;-79
2021/06/02 06:11:04;;;;;;;1.70;1.60;;;;;;;;;;5030549;28;20072;-77
2021/06/02 06:13:49;;;;;;;2.20;2.00;;;;;;;;;;5036768;28;20052;-78
2021/06/02 06:16:24;;;;;;;2.00;1.90;;;;;;;;;;5046005;28;20037;-79
2021/06/02 06:19:09;;;;;;;1.88;1.75;;;;;;;;;;5048257;28;20091;-79
2021/06/02 06:21:35;;;;;;;1.85;1.70;;;;;;;;;;5047020;28;20026;-79
2021/06/02 06:24:18;;;;;;;1.70;1.50;;;;;;;;;;5029405;28;20502;-79
2021/06/02 06:26:50;;;;;;;3.80;1.88;;;;;;;;;;5029507;28;20029;-79
2021/06/02 06:29:35;;;;;;;4.15;1.77;;;;;;;;;;5032054;28;20022;-79
2021/06/02 06:32:02;;;;;;;1.27;1.27;;;;;;;;;;5031845;28;20167;-78
2021/06/02 06:34:32;;;;;;;1.40;1.30;;;;;;;;;;5031689;28;20029;-79
2021/06/02 06:36:59;;;;;;;1.67;1.58;;;;;;;;;;5033101;28;20030;-79
2021/06/02 06:39:35;;;;;;;9.52;2.50;;;;;;;;;;5030398;28;20098;-81
2021/06/02 06:42:01;;;;;;;1.77;1.67;;;;;;;;;;5033216;28;20022;-82
2021/06/02 06:44:28;;;;;;;2.28;1.98;;;;;;;;;;5043473;28;20393;-80
2021/06/02 06:46:55;;;;;;;1.77;1.60;;;;;;;;;;5050251;28;20131;-81
2021/06/02 06:49:25;;;;;;;2.65;1.90;;;;;;;;;;5043934;28;20474;-82
2021/06/02 06:51:52;;;;;;;2.33;1.55;;;;;;;;;;5044967;28;20028;-83
2021/06/02 06:54:19;;;;;;;2.05;1.70;;;;;;;;;;5028168;28;20022;-82
2021/06/02 06:56:45;;;;;;;2.15;1.45;;;;;;;;;;5025977;28;20044;-82
2021/06/02 06:59:12;;;;;;;1.55;1.45;;;;;;;;;;5041092;28;20042;-82
2021/06/02 07:01:38;;;;;;;3.95;2.15;;;;;;;;;;5045598;28;20025;-83
2021/06/02 07:04:06;;;;;;;2.85;1.98;;;;;;;;;;5041239;28;20022;-81
2021/06/02 07:06:33;;;;;;;1.55;1.45;;;;;;;;;;5026788;28;20033;-82
2021/06/02 07:08:59;;;;;;;1.80;1.70;;;;;;;;;;5066383;22;20049;-82
2021/06/02 07:11:26;;;;;;;2.20;1.88;;;;;;;;;;5046731;28;20025;-82
2021/06/02 07:13:52;;;;;;;1.50;1.40;;;;;;;;;;5049048;28;20017;-80
2021/06/02 07:16:19;;;;;;;2.10;1.90;;;;;;;;;;5039080;28;20025;-81
2021/06/02 07:18:46;;;;;;;3.13;2.15;;;;;;;;;;5037915;28;20036;-80
2021/06/02 07:21:12;;;;;;;5.30;2.35;;;;;;;;;;5039080;28;20005;-79
2021/06/02 07:23:41;;;;;;;2.75;2.20;;;;;;;;;;5040687;28;20413;-80
2021/06/02 07:26:08;;;;;;;4.65;2.42;;;;;;;;;;5038220;28;20085;-79
2021/06/02 07:28:36;;;;;;;5.78;2.25;;;;;;;;;;5039012;28;20030;-80
2021/06/02 07:31:03;;;;;;;4.47;2.22;;;;;;;;;;5037882;28;20104;-78
2021/06/02 07:33:29;;;;;;;2.33;2.13;;;;;;;;;;5038835;28;20107;-81
2021/06/02 07:35:55;;;;;;;2.30;1.80;;;;;;;;;;5039047;28;20049;-80
2021/06/02 07:38:21;;;;;;;8.52;2.00;;;;;;;;;;5039171;28;20058;-80
2021/06/02 07:40:47;;;;;;;4.82;1.95;;;;;;;;;;5040628;28;20018;-80
2021/06/02 07:43:14;;;;;;;3.60;1.95;;;;;;;;;;5046390;28;20030;-80
2021/06/02 07:45:40;;;;;;;5.18;2.78;;;;;;;;;;5038065;28;20335;-78
2021/06/02 07:48:06;;;;;;;3.30;2.13;;;;;;;;;;5037058;28;20072;-79
2021/06/02 07:50:32;;;;;;;4.55;2.55;;;;;;;;;;5036587;28;20084;-79
2021/06/02 07:52:58;;;;;;;5.03;2.58;;;;;;;;;;5037696;28;20048;-80
2021/06/02 07:55:24;;;;;;;2.35;2.00;;;;;;;;;;5038341;28;20037;-80
2021/06/02 07:57:50;;;;;;;4.55;2.53;;;;;;;;;;5037480;28;20401;-79
2021/06/02 08:00:16;;;;;;;2.35;2.00;;;;;;;;;;5038126;28;20081;-80
2021/06/02 08:02:42;;;;;;;3.40;2.00;;;;;;;;;;5038431;28;20024;-80
2021/06/02 08:05:10;;;;;;;2.33;1.70;;;;;;;;;;5038196;28;20014;-80
2021/06/02 08:07:36;;;;;;;2.55;2.25;;;;;;;;;;5038133;28;20030;-80
2021/06/02 08:10:03;;;;;;;3.15;1.88;;;;;;;;;;5037846;28;20017;-81
2021/06/02 08:12:30;;;;;;;2.85;2.30;;;;;;;;;;5042441;28;20024;-79
2021/06/02 08:14:56;;;;;;;5.32;2.53;;;;;;;;;;5057051;28;20054;-82
2021/06/02 08:17:22;;;;;;;4.30;2.67;;;;;;;;;;5057513;28;20108;-81
2021/06/02 08:19:48;;;;;;;4.32;1.90;;;;;;;;;;5056298;28;20086;-80
2021/06/02 08:22:14;;;;;;;4.10;2.30;;;;;;;;;;5056329;28;20027;-81
2021/06/02 08:24:40;;;;;;;2.25;2.13;;;;;;;;;;5054395;28;20112;-79
2021/06/02 08:27:10;;;;;;;4.82;2.40;;;;;;;;;;5056073;28;20021;-80
2021/06/02 08:29:36;;;;;;;3.53;1.98;;;;;;;;;;5054901;28;20024;-79
2021/06/02 08:32:02;;;;;;;7.18;2.55;;;;;;;;;;5057315;28;20025;-82
2021/06/02 08:34:28;;;;;;;2.63;1.90;;;;;;;;;;5057691;28;20040;-80
2021/06/02 08:36:54;;;;;;;3.30;2.20;;;;;;;;;;5058300;28;20089;-80
2021/06/02 08:39:21;;;;;;;6.72;2.60;;;;;;;;;;5058319;28;20025;-80
2021/06/02 08:41:49;;;;;;;3.70;2.33;;;;;;;;;;5054363;28;20033;-79
2021/06/02 08:44:16;;;;;;;4.38;2.30;;;;;;;;;;5038873;28;20474;-80
2021/06/02 08:46:43;;;;;;;4.10;1.95;;;;;;;;;;5037644;28;20033;-79
2021/06/02 08:49:09;;;;;;;3.42;1.52;;;;;;;;;;5038513;28;20025;-81
2021/06/02 08:51:35;;;;;;;4.30;2.55;;;;;;;;;;5038673;28;20028;-79
2021/06/02 08:54:01;;;;;;;4.30;2.08;;;;;;;;;;5037541;28;20041;-80
2021/06/02 08:56:29;;;;;;;4.53;2.15;;;;;;;;;;5038092;28;20095;-80
2021/06/02 08:58:55;;;;;;;4.68;1.77;;;;;;;;;;5036445;28;20055;-81
2021/06/02 09:01:24;;;;;;;3.70;1.83;;;;;;;;;;5036976;28;20473;-80
2021/06/02 09:03:51;;;;;;;3.55;1.80;;;;;;;;;;5037407;28;20080;-80
2021/06/02 09:06:18;;;;;;;1.70;1.45;;;;;;;;;;5037240;28;20029;-80
2021/06/02 09:08:44;;;;;;;3.17;1.75;;;;;;;;;;5035810;28;20276;-80
2021/06/02 09:11:15;;;;;;;2.20;1.50;;;;;;;;;;5039375;28;20036;-80
2021/06/02 09:13:42;;;;;;;1.92;1.65;;;;;;;;;;5051001;28;20040;-80
2021/06/02 09:16:20;;;;;;;6.43;2.53;;;;;;;;;;5036091;28;20076;-79
2021/06/02 09:19:18;;;;;;;2.20;1.80;;;;;;;;;;5033574;28;20046;-80
2021/06/02 09:21:44;;;;;;;2.05;1.50;;;;;;;;;;5002189;28;20033;-79
2021/06/02 09:24:10;;;;;;;4.28;2.20;;;;;;;;;;5034721;28;20037;-80
2021/06/02 09:26:36;;;;;;;1.67;1.58;;;;;;;;;;5034599;28;20100;-80
2021/06/02 09:29:12;;;;;;;4.35;2.20;;;;;;;;;;5034289;28;20033;-80
2021/06/02 09:31:39;;;;;;;3.28;2.28;;;;;;;;;;5034043;28;20545;-80
2021/06/02 09:34:14;;;;;;;1.88;1.67;;;;;;;;;;5035228;28;20025;-79
2021/06/02 09:36:40;;;;;;;1.65;1.55;;;;;;;;;;5036586;28;20474;-81
2021/06/02 09:39:11;;;;;;;6.03;2.17;;;;;;;;;;5036480;28;20088;-80
2021/06/02 09:41:57;;;;;;;3.58;2.30;;;;;;;;;;5036373;28;20061;-79
2021/06/02 09:44:23;;;;;;;4.80;2.33;;;;;;;;;;5065165;28;20024;-78
2021/06/02 09:47:00;;;;;;;5.00;2.70;;;;;;;;;;5057049;28;20028;-79
2021/06/02 09:49:26;;;;;;;5.30;2.45;;;;;;;;;;5056484;28;20477;-79
2021/06/02 09:51:53;;;;;;;2.15;1.75;;;;;;;;;;5055515;28;20079;-82
2021/06/02 09:54:23;;;;;;;2.60;2.33;;;;;;;;;;5057013;28;20086;-79
2021/06/02 09:56:49;;;;;;;4.90;2.10;;;;;;;;;;5058296;28;20025;-80
2021/06/02 09:59:16;;;;;;;4.53;2.05;;;;;;;;;;5058838;28;20049;-80
2021/06/02 10:01:52;;;;;;;2.15;1.63;;;;;;;;;;5058863;28;20025;-80
2021/06/02 10:04:19;;;;;;;6.28;2.17;;;;;;;;;;5055916;28;20381;-81
2021/06/02 10:06:47;;;;;;;5.97;2.00;;;;;;;;;;5054290;28;20025;-80
2021/06/02 10:09:13;;;;;;;6.07;1.80;;;;;;;;;;5056973;28;20025;-80
2021/06/02 10:11:54;;;;;;;2.63;1.90;;;;;;;;;;5054766;28;20033;-79
2021/06/02 10:14:20;;;;;;;2.92;1.90;;;;;;;;;;5041718;28;20478;-80
2021/06/02 10:16:47;;;;;;;2.30;2.03;;;;;;;;;;5055878;28;20057;-79
2021/06/02 10:19:13;;;;;;;1.60;1.50;;;;;;;;;;5058258;28;20393;-79
2021/06/02 10:21:46;;;;;;;3.60;2.03;;;;;;;;;;5055136;28;20074;-80
2021/06/02 10:24:12;;;;;;;2.65;1.95;;;;;;;;;;5054734;28;20025;-80
2021/06/02 10:26:39;;;;;;;2.50;2.05;;;;;;;;;;5055186;28;20021;-78
2021/06/02 10:29:06;;;;;;;3.33;2.20;;;;;;;;;;5055003;28;20021;-78
2021/06/02 10:31:32;;;;;;;3.95;2.60;;;;;;;;;;5063349;28;20507;-80
2021/06/02 10:33:58;;;;;;;3.40;2.25;;;;;;;;;;5060975;28;20089;-78
2021/06/02 10:36:25;;;;;;;6.88;3.00;;;;;;;;;;5054352;28;20021;-79
2021/06/02 10:38:59;;;;;;;4.00;2.08;;;;;;;;;;5054746;28;20036;-79
2021/06/02 10:41:25;;;;;;;4.05;2.40;;;;;;;;;;5053449;28;20021;-79
2021/06/02 10:43:52;;;;;;;4.45;2.42;;;;;;;;;;5045841;28;20021;-79
2021/06/02 10:46:21;;;;;;;2.58;2.13;;;;;;;;;;5053035;28;20110;-80
2021/06/02 10:48:47;;;;;;;2.03;1.88;;;;;;;;;;5057667;28;20029;-80
2021/06/02 10:51:25;;;;;;;4.97;2.60;;;;;;;;;;5058028;28;20086;-79
2021/06/02 10:54:13;;;;;;;3.70;2.00;;;;;;;;;;5056835;28;20028;-81
2021/06/02 10:57:02;;;;;;;3.67;2.25;;;;;;;;;;5065241;28;20065;-78
2021/06/02 10:59:36;;;;;;;4.45;2.47;;;;;;;;;;5058210;28;20021;-79
2021/06/02 11:02:11;;;;;;;2.50;1.92;;;;;;;;;;5057617;28;20563;-79
2021/06/02 11:04:40;;;;;;;2.72;2.05;;;;;;;;;;5056311;28;20472;-80
2021/06/02 11:07:22;;;;;;;5.38;2.30;;;;;;;;;;5059269;28;20155;-80
2021/06/02 11:09:48;;;;;;;;;;;;;;;;;;5059273;28;20104;-80
2021/06/02 11:12:14;;;;;;;2.08;1.88;;;;;;;;;;5063153;28;19963;-84
2021/06/02 11:14:40;;;;;;;4.10;2.30;;;;;;;;;;5041634;28;20527;-82
2021/06/02 11:17:10;;;;;;;4.15;2.47;;;;;;;;;;5039294;28;20381;-81
2021/06/02 11:19:38;;;;;;;1.92;1.60;;;;;;;;;;5042837;28;20028;-82
2021/06/02 11:22:06;;;;;;;2.58;1.70;;;;;;;;;;5041592;28;20189;-82
2021/06/02 11:24:36;;;;;;;1.90;1.80;;;;;;;;;;5043359;28;20070;-82
2021/06/02 11:29:54;;;;;;;2.13;1.92;;;;;;;;;;5044015;28;20025;-81
2021/06/02 11:32:27;;;;;;;3.22;2.10;;;;;;;;;;5049017;28;20033;-82
2021/06/02 11:34:54;;;;;;;4.18;2.40;;;;;;;;;;5054249;28;20034;-80
2021/06/02 11:37:22;;;;;;;4.40;2.63;;;;;;;;;;5050811;28;20445;-82
2021/06/02 11:39:51;;;;;;;3.42;1.90;;;;;;;;;;5041060;28;20018;-81
2021/06/02 11:42:29;;;;;;;2.17;1.80;;;;;;;;;;5051205;28;20032;-80
2021/06/02 11:44:58;;;;;;;3.72;2.05;;;;;;;;;;5048096;28;20402;-82
2021/06/02 11:47:25;;;;;;;3.33;1.70;;;;;;;;;;5043002;28;20029;-82
2021/06/02 11:49:51;;;;;;;1.65;1.50;;;;;;;;;;5043270;28;20026;-82
2021/06/02 11:52:18;;;;;;;1.50;1.40;;;;;;;;;;5047096;28;20030;-80
2021/06/02 11:54:48;;;;;;;1.65;1.30;;;;;;;;;;5047027;28;20029;-81
2021/06/02 11:57:23;;;;;;;1.60;1.50;;;;;;;;;;5045101;28;20021;-81
2021/06/02 11:59:50;;;;;;;2.30;1.55;;;;;;;;;;5044291;28;20036;-82
2021/06/02 12:02:16;;;;;;;1.52;1.42;;;;;;;;;;5045562;28;20024;-82
2021/06/02 12:04:42;;;;;;;1.45;1.27;;;;;;;;;;5044410;28;20025;-81
2021/06/02 12:07:25;;;;;;;1.70;1.60;;;;;;;;;;5045332;28;20029;-82
2021/06/02 12:09:55;;;;;;;5.70;2.75;;;;;;;;;;5042884;28;20064;-81
2021/06/02 12:12:21;;;;;;;2.92;1.95;;;;;;;;;;5051626;28;20037;-82
2021/06/02 12:14:53;;;;;;;3.53;1.77;;;;;;;;;;5057509;28;20029;-83
2021/06/02 12:17:26;;;;;;;1.58;1.48;;;;;;;;;;5059991;28;20033;-81
2021/06/02 12:19:52;;;;;;;1.98;1.85;;;;;;;;;;5058734;28;20120;-81
2021/06/02 12:22:21;;;;;;;1.65;1.55;;;;;;;;;;5061236;28;20110;-79
2021/06/02 12:25:03;;;;;;;2.95;1.85;;;;;;;;;;5060182;28;20112;-83
2021/06/02 12:27:29;;;;;;;6.47;2.10;;;;;;;;;;5059811;28;20151;-82
2021/06/02 12:30:05;;;;;;;3.05;1.80;;;;;;;;;;5058347;28;20029;-83
2021/06/02 12:32:44;;;;;;;2.50;2.30;;;;;;;;;;5057509;28;20114;-82
2021/06/02 12:35:29;;;;;;;1.85;1.70;;;;;;;;;;5058046;28;20036;-82
2021/06/02 12:38:01;;;;;;;4.80;2.10;;;;;;;;;;5059382;28;20063;-82
2021/06/02 12:40:28;;;;;;;1.67;1.58;;;;;;;;;;5057937;28;20025;-82
2021/06/02 12:42:54;;;;;;;3.33;1.75;;;;;;;;;;5049235;28;20033;-82
2021/06/02 12:45:25;;;;;;;2.25;1.40;;;;;;;;;;5059057;28;20024;-82
2021/06/02 12:47:53;;;;;;;2.67;2.13;;;;;;;;;;5067195;28;20033;-81
2021/06/02 12:50:35;;;;;;;1.67;1.58;;;;;;;;;;5077286;28;20063;-81
2021/06/02 12:53:02;;;;;;;2.58;2.38;;;;;;;;;;5077163;28;20138;-80
2021/06/02 12:55:28;;;;;;;1.50;1.38;;;;;;;;;;5076532;28;20021;-80
2021/06/02 12:57:58;;;;;;;1.30;1.30;;;;;;;;;;5075493;28;20060;-82
2021/06/02 13:00:24;;;;;;;2.45;2.25;;;;;;;;;;5075083;28;20070;-80
2021/06/02 13:02:50;;;;;;;3.05;2.10;;;;;;;;;;5077175;28;20044;-80
2021/06/02 13:05:16;;;;;;;2.47;1.70;;;;;;;;;;5077576;28;20001;-80
2021/06/02 13:07:43;;;;;;;2.35;1.90;;;;;;;;;;5075286;28;20025;-81
2021/06/02 13:10:09;;;;;;;2.20;2.00;;;;;;;;;;5069878;28;20029;-79
2021/06/02 13:12:35;;;;;;;2.00;1.75;;;;;;;;;;5070502;28;20013;-79
2021/06/02 13:15:01;;;;;;;2.20;1.58;;;;;;;;;;5074828;28;20013;-79
2021/06/02 13:17:42;;;;;;;2.30;1.92;;;;;;;;;;5076477;28;20079;-79
2021/06/02 13:20:09;;;;;;;2.33;2.13;;;;;;;;;;5077703;28;20039;-79
2021/06/02 13:22:35;;;;;;;3.47;2.33;;;;;;;;;;5077463;28;20013;-80
2021/06/02 13:25:02;;;;;;;1.70;1.60;;;;;;;;;;5072099;28;20766;-83
2021/06/02 13:27:28;;;;;;;2.25;2.05;;;;;;;;;;5063982;28;20017;-82
2021/06/02 13:30:03;;;;;;;2.50;1.80;;;;;;;;;;5060961;28;20021;-84
2021/06/02 13:32:29;;;;;;;3.33;1.95;;;;;;;;;;5060254;28;20029;-80
2021/06/02 13:34:56;;;;;;;2.60;2.10;;;;;;;;;;5061402;28;20039;-81
2021/06/02 13:37:24;;;;;;;2.40;2.13;;;;;;;;;;5060671;28;20052;-82
2021/06/02 13:40:11;;;;;;;2.00;1.90;;;;;;;;;;5061012;28;20070;-83
2021/06/02 13:42:37;;;;;;;3.30;2.22;;;;;;;;;;5052703;28;20024;-82
2021/06/02 13:45:03;;;;;;;2.67;1.88;;;;;;;;;;5042172;28;20036;-83
2021/06/02 13:47:36;;;;;;;1.65;1.55;;;;;;;;;;5040369;28;20048;-81
2021/06/02 13:50:15;;;;;;;3.28;2.00;;;;;;;;;;5044472;28;20076;-81
2021/06/02 13:52:42;;;;;;;2.58;1.55;;;;;;;;;;5048206;28;20056;-81
2021/06/02 13:55:12;;;;;;;4.22;2.03;;;;;;;;;;5042926;28;20392;-83
2021/06/02 13:57:41;;;;;;;2.20;2.00;;;;;;;;;;5040984;28;20117;-80
2021/06/02 14:00:08;;;;;;;1.67;1.58;;;;;;;;;;5040930;28;20041;-83
2021/06/02 14:02:35;;;;;;;1.40;1.30;;;;;;;;;;5041271;28;20108;-81
2021/06/02 14:05:02;;;;;;;1.85;1.75;;;;;;;;;;5040514;28;20028;-83
2021/06/02 14:07:28;;;;;;;1.73;1.63;;;;;;;;;;5042997;28;20017;-82
2021/06/02 14:09:54;;;;;;;2.22;1.92;;;;;;;;;;5042911;28;20025;-81
2021/06/02 14:12:20;;;;;;;4.32;3.20;;;;;;;;;;5050554;28;20032;-81
2021/06/02 14:14:47;;;;;;;3.75;2.03;;;;;;;;;;5056907;28;20096;-81
2021/06/02 14:17:14;;;;;;;2.40;2.20;;;;;;;;;;5060889;28;20029;-82
2021/06/02 14:19:42;;;;;;;3.90;3.45;;;;;;;;;;5063746;28;20029;-82
2021/06/02 14:22:09;;;;;;;4.38;2.45;;;;;;;;;;5066337;28;20316;-82
2021/06/02 14:24:37;;;;;;;4.50;2.53;;;;;;;;;;5074297;28;20083;-82
2021/06/02 14:27:03;;;;;;;2.25;2.08;;;;;;;;;;5074156;28;20558;-80
2021/06/02 14:29:32;;;;;;;3.95;2.35;;;;;;;;;;5073269;28;20028;-82
2021/06/02 14:31:58;;;;;;;5.97;2.67;;;;;;;;;;5068498;28;20025;-82
2021/06/02 14:34:25;;;;;;;2.05;1.88;;;;;;;;;;5066053;28;20112;-82
2021/06/02 14:36:51;;;;;;;3.55;2.13;;;;;;;;;;5075737;28;20042;-79
2021/06/02 14:39:17;;;;;;;4.78;2.50;;;;;;;;;;5074731;28;20025;-80
2021/06/02 14:41:44;;;;;;;3.55;2.53;;;;;;;;;;5072760;28;20022;-82
2021/06/02 14:44:10;;;;;;;5.35;2.22;;;;;;;;;;5056194;28;20013;-80
2021/06/02 14:46:37;;;;;;;2.22;1.90;;;;;;;;;;5055772;28;20025;-80
2021/06/02 14:49:04;;;;;;;5.32;2.05;;;;;;;;;;5056967;28;20026;-81
2021/06/02 14:51:30;;;;;;;4.07;1.77;;;;;;;;;;5055467;28;20049;-82
2021/06/02 14:53:56;;;;;;;4.05;2.22;;;;;;;;;;5055148;28;20061;-81
2021/06/02 14:56:22;;;;;;;1.90;1.65;;;;;;;;;;5056431;28;20014;-81
2021/06/02 14:58:49;;;;;;;1.75;1.42;;;;;;;;;;5056001;28;20029;-81
2021/06/02 15:01:15;;;;;;;1.90;1.60;;;;;;;;;;5056237;28;20034;-81
2021/06/02 15:03:41;;;;;;;1.50;1.40;;;;;;;;;;5054392;28;20036;-81
2021/06/02 15:06:10;;;;;;;1.60;1.50;;;;;;;;;;5055527;28;20020;-80
2021/06/02 15:08:36;;;;;;;4.40;1.65;;;;;;;;;;5054445;28;20097;-80